createdAt,value
2023-02-14T00:02:24.369Z,17.80
2023-02-14T00:04:54.899Z,19.70
2023-02-14T00:07:27.006Z,13.50
2023-02-14T00:09:57.650Z,13.15
2023-02-14T00:12:28.117Z,12.20
2023-02-14T00:15:15.027Z,10.85
2023-02-14T00:17:45.555Z,11.90
2023-02-14T00:20:19.166Z,10.90
2023-02-14T00:22:51.294Z,8.82
2023-02-14T00:25:22.118Z,8.18
2023-02-14T00:27:52.659Z,8.57
2023-02-14T00:30:23.166Z,5.20
2023-02-14T00:32:56.747Z,10.90
2023-02-14T00:35:27.257Z,6.97
2023-02-14T00:37:59.362Z,9.85
2023-02-14T00:40:33.981Z,10.73
2023-02-14T00:43:04.511Z,13.13
2023-02-14T00:45:35.138Z,11.75
2023-02-14T00:48:05.747Z,13.02
2023-02-14T00:50:36.268Z,10.95
2023-02-14T00:53:08.423Z,7.45
2023-02-14T00:55:38.898Z,10.02
2023-02-14T00:58:09.419Z,8.63
2023-02-14T01:00:40.003Z,10.88
2023-02-14T01:03:10.575Z,9.48
2023-02-14T01:05:41.122Z,9.27
2023-02-14T01:08:13.332Z,13.07
2023-02-14T01:10:44.374Z,12.48
2023-02-14T01:13:15.966Z,8.93
2023-02-14T01:15:48.656Z,10.35
2023-02-14T01:18:20.207Z,8.77
2023-02-14T01:20:50.821Z,14.50
2023-02-14T01:23:23.024Z,11.52
2023-02-14T01:25:53.544Z,8.30
2023-02-14T01:28:24.024Z,9.25
2023-02-14T01:30:54.530Z,8.55
2023-02-14T01:33:25.574Z,8.10
2023-02-14T01:35:56.079Z,9.88
2023-02-14T01:38:28.357Z,10.20
2023-02-14T01:40:59.392Z,8.55
2023-02-14T01:43:30.158Z,9.00
2023-02-14T01:46:00.622Z,12.18
2023-02-14T01:48:31.184Z,7.47
2023-02-14T01:51:01.943Z,10.38
2023-02-14T01:53:34.286Z,8.52
2023-02-14T01:56:10.428Z,10.43
2023-02-14T01:58:45.880Z,9.40
2023-02-14T02:01:17.402Z,8.32
2023-02-14T02:03:51.804Z,8.68
2023-02-14T02:06:29.420Z,11.07
2023-02-14T02:09:10.376Z,8.00
2023-02-14T02:11:41.064Z,6.72
2023-02-14T02:14:16.844Z,12.32
2023-02-14T02:17:16.189Z,9.38
2023-02-14T02:20:29.764Z,8.52
2023-02-14T02:23:36.333Z,7.72
2023-02-14T02:26:37.149Z,5.95
2023-02-14T02:29:36.012Z,10.25
2023-02-14T02:32:45.262Z,10.73
2023-02-14T02:35:39.617Z,8.68
2023-02-14T02:38:24.001Z,12.43
2023-02-14T02:41:04.132Z,12.20
2023-02-14T02:43:46.561Z,8.85
2023-02-14T02:46:42.773Z,11.18
2023-02-14T02:49:36.759Z,10.13
2023-02-14T02:52:35.083Z,8.55
2023-02-14T02:55:10.883Z,9.63
2023-02-14T02:57:45.444Z,10.60
2023-02-14T03:00:17.136Z,8.50
2023-02-14T03:03:07.848Z,8.32
2023-02-14T03:05:39.606Z,10.02
2023-02-14T03:08:11.725Z,9.25
2023-02-14T03:10:43.084Z,9.82
2023-02-14T03:13:45.894Z,9.05
2023-02-14T03:16:37.351Z,8.32
2023-02-14T03:20:01.043Z,6.47
2023-02-14T03:22:44.389Z,8.82
2023-02-14T03:25:26.929Z,7.82
2023-02-14T03:28:07.216Z,9.70
2023-02-14T03:30:44.585Z,13.27
2023-02-14T03:33:19.861Z,9.10
2023-02-14T03:35:57.583Z,7.10
2023-02-14T03:38:34.095Z,14.23
2023-02-14T03:41:08.751Z,11.13
2023-02-14T03:43:43.959Z,7.30
2023-02-14T03:46:21.517Z,11.95
2023-02-14T03:48:55.541Z,8.20
2023-02-14T03:51:28.012Z,11.35
2023-02-14T03:54:01.733Z,7.80
2023-02-14T03:56:39.392Z,6.50
2023-02-14T03:59:17.036Z,7.57
2023-02-14T04:01:51.388Z,8.20
2023-02-14T04:04:25.017Z,8.13
2023-02-14T04:06:55.761Z,8.45
2023-02-14T04:09:26.220Z,6.47
2023-02-14T04:11:58.395Z,10.70
2023-02-14T04:14:30.355Z,8.50
2023-02-14T04:17:17.668Z,10.85
2023-02-14T04:19:48.086Z,11.95
2023-02-14T04:22:18.679Z,7.90
2023-02-14T04:24:49.375Z,9.65
2023-02-14T04:27:24.239Z,9.07
2023-02-14T04:29:55.015Z,9.70
2023-02-14T04:32:26.073Z,5.93
2023-02-14T04:34:56.596Z,9.82
2023-02-14T04:37:27.049Z,8.52
2023-02-14T04:39:57.524Z,10.32
2023-02-14T04:42:29.598Z,12.20
2023-02-14T04:45:00.780Z,7.32
2023-02-14T04:47:32.537Z,8.90
2023-02-14T04:50:03.010Z,15.00
2023-02-14T04:52:33.509Z,15.65
2023-02-14T04:55:04.094Z,13.15
2023-02-14T04:57:36.328Z,14.05
2023-02-14T05:00:07.318Z,11.25
2023-02-14T05:02:38.009Z,12.07
2023-02-14T05:05:10.069Z,12.35
2023-02-14T05:07:40.581Z,11.80
2023-02-14T05:10:12.058Z,10.90
2023-02-14T05:12:47.445Z,10.40
2023-02-14T05:15:18.084Z,9.70
2023-02-14T05:17:48.546Z,9.82
2023-02-14T05:20:19.135Z,9.50
2023-02-14T05:22:49.661Z,7.28
2023-02-14T05:25:20.362Z,7.80
2023-02-14T05:27:55.052Z,8.98
2023-02-14T05:30:28.757Z,6.45
2023-02-14T05:32:59.718Z,8.95
2023-02-14T05:35:30.629Z,8.70
2023-02-14T05:38:01.311Z,9.68
2023-02-14T05:40:32.058Z,8.77
2023-02-14T05:43:04.324Z,9.35
2023-02-14T05:45:34.841Z,8.73
2023-02-14T05:48:06.980Z,8.90
2023-02-14T05:50:37.677Z,8.32
2023-02-14T05:53:08.354Z,15.13
2023-02-14T05:55:39.209Z,9.13
2023-02-14T05:58:14.650Z,7.80
2023-02-14T06:00:45.331Z,8.02
2023-02-14T06:03:15.932Z,8.02
2023-02-14T06:05:46.496Z,12.18
2023-02-14T06:08:17.086Z,7.47
2023-02-14T06:10:47.766Z,9.95
2023-02-14T06:13:20.127Z,8.07
2023-02-14T06:15:51.430Z,9.82
2023-02-14T06:18:22.023Z,6.25
2023-02-14T06:20:54.033Z,11.02
2023-02-14T06:23:24.781Z,8.13
2023-02-14T06:25:55.367Z,11.30
2023-02-14T06:28:27.564Z,11.80
2023-02-14T06:30:58.511Z,8.90
2023-02-14T06:33:29.450Z,9.13
2023-02-14T06:36:00.097Z,13.00
2023-02-14T06:38:31.008Z,12.45
2023-02-14T06:41:06.716Z,9.63
2023-02-14T06:43:39.432Z,8.38
2023-02-14T06:46:10.064Z,8.45
2023-02-14T06:48:41.110Z,8.07
2023-02-14T06:51:11.953Z,11.52
2023-02-14T06:53:42.921Z,13.15
2023-02-14T06:56:13.581Z,12.00
2023-02-14T06:58:48.818Z,9.15
2023-02-14T07:01:19.385Z,12.00
2023-02-14T07:03:49.976Z,11.85
2023-02-14T07:06:20.626Z,14.27
2023-02-14T07:08:51.158Z,10.27
2023-02-14T07:11:21.752Z,12.57
2023-02-14T07:13:54.067Z,9.43
2023-02-14T07:16:24.670Z,6.68
2023-02-14T07:18:55.230Z,9.80
2023-02-14T07:21:25.808Z,9.70
2023-02-14T07:23:56.332Z,6.85
2023-02-14T07:26:26.848Z,10.57
2023-02-14T07:28:59.035Z,6.00
2023-02-14T07:31:29.736Z,9.18
2023-02-14T07:34:02.581Z,11.43
2023-02-14T07:36:33.279Z,11.48
2023-02-14T07:39:03.761Z,12.63
2023-02-14T07:41:34.313Z,10.23
2023-02-14T07:44:06.520Z,9.45
2023-02-14T07:46:37.163Z,9.88
2023-02-14T07:49:07.957Z,8.27
2023-02-14T07:51:38.476Z,13.07
2023-02-14T07:54:09.078Z,13.20
2023-02-14T07:56:39.627Z,11.18
2023-02-14T07:59:11.756Z,17.55
2023-02-14T08:01:43.263Z,9.02
2023-02-14T08:04:15.825Z,11.00
2023-02-14T08:06:47.521Z,15.55
2023-02-14T08:09:25.788Z,11.63
2023-02-14T08:12:15.374Z,14.40
2023-02-14T08:14:49.252Z,16.90
2023-02-14T08:17:21.094Z,13.95
2023-02-14T08:19:52.531Z,12.52
2023-02-14T08:22:24.474Z,10.88
2023-02-14T08:24:56.047Z,14.10
2023-02-14T08:27:27.963Z,16.00
2023-02-14T08:30:01.353Z,11.50
2023-02-14T08:32:33.068Z,16.70
2023-02-14T08:35:05.240Z,15.35
2023-02-14T08:37:36.821Z,10.60
2023-02-14T08:40:08.606Z,19.08
2023-02-14T08:42:40.192Z,15.00
2023-02-14T08:45:14.324Z,18.75
2023-02-14T08:47:46.160Z,14.77
2023-02-14T08:50:19.489Z,18.15
2023-02-14T08:52:50.918Z,13.48
2023-02-14T08:55:22.886Z,15.27
2023-02-14T08:57:54.408Z,13.02
2023-02-14T09:00:28.366Z,16.45
2023-02-14T09:02:59.996Z,15.63
2023-02-14T09:05:32.068Z,12.80
2023-02-14T09:08:04.987Z,20.90
2023-02-14T09:10:36.471Z,14.60
2023-02-14T09:13:08.323Z,16.92
2023-02-14T09:15:41.746Z,13.95
2023-02-14T09:18:13.498Z,19.98
2023-02-14T09:20:45.572Z,15.00
2023-02-14T09:23:17.220Z,15.20
2023-02-14T09:25:48.468Z,12.63
2023-02-14T09:28:20.046Z,11.07
2023-02-14T09:30:54.547Z,14.82
2023-02-14T09:33:26.898Z,11.00
2023-02-14T09:36:17.484Z,13.63
2023-02-14T09:38:49.434Z,10.05
2023-02-14T09:42:00.719Z,10.70
2023-02-14T09:44:38.150Z,12.32
2023-02-14T09:47:21.435Z,20.70
2023-02-14T09:49:55.497Z,9.45
2023-02-14T09:52:32.565Z,10.70
2023-02-14T09:55:05.920Z,12.30
2023-02-14T09:57:46.316Z,14.55
2023-02-14T10:00:25.808Z,8.40
2023-02-14T10:03:16.270Z,10.77
2023-02-14T10:05:56.641Z,15.35
2023-02-14T10:08:45.258Z,18.55
2023-02-14T10:11:24.327Z,18.05
2023-02-14T10:14:00.435Z,17.02
2023-02-14T10:16:37.319Z,17.13
2023-02-14T10:19:21.135Z,20.05
2023-02-14T10:21:57.987Z,17.67
2023-02-14T10:24:34.282Z,16.40
2023-02-14T10:27:13.257Z,18.20
2023-02-14T10:29:46.058Z,29.65
2023-02-14T10:32:29.228Z,39.63
2023-02-14T10:35:08.906Z,31.40
2023-02-14T10:38:01.702Z,25.88
2023-02-14T10:41:07.400Z,16.67
2023-02-14T10:43:50.666Z,13.50
2023-02-14T10:47:40.586Z,20.10
2023-02-14T10:54:19.424Z,8.57
2023-02-14T10:57:07.825Z,14.27
2023-02-14T10:59:50.177Z,11.25
2023-02-14T11:02:26.006Z,8.63
2023-02-14T11:04:58.244Z,14.60
2023-02-14T11:07:31.561Z,10.88
2023-02-14T11:10:02.802Z,10.77
2023-02-14T11:12:43.172Z,9.85
2023-02-14T11:15:22.889Z,14.43
2023-02-14T11:18:10.399Z,6.25
2023-02-14T11:20:41.827Z,10.98
2023-02-14T11:23:24.619Z,5.50
2023-02-14T11:26:02.187Z,8.07
2023-02-14T11:28:35.913Z,10.75
2023-02-14T11:31:07.387Z,8.70
2023-02-14T11:33:42.454Z,10.10
2023-02-14T11:36:20.712Z,4.70
2023-02-14T11:39:04.264Z,6.72
2023-02-14T11:41:52.860Z,11.40
2023-02-14T11:44:28.861Z,5.30
2023-02-14T11:47:01.105Z,11.82
2023-02-14T11:49:34.722Z,6.75
2023-02-14T11:52:16.377Z,10.23
2023-02-14T11:54:52.516Z,8.40
2023-02-14T11:57:30.506Z,16.77
2023-02-14T12:00:04.292Z,12.75
2023-02-14T12:02:43.398Z,11.45
2023-02-14T12:05:23.749Z,6.35
2023-02-14T12:08:01.484Z,9.88
2023-02-14T12:10:36.553Z,9.57
2023-02-14T12:13:26.361Z,43.05
2023-02-14T12:16:02.656Z,23.50
2023-02-14T12:18:57.789Z,8.95
2023-02-14T12:21:50.691Z,8.85
2023-02-14T12:24:32.685Z,9.45
2023-02-14T12:27:21.323Z,9.38
2023-02-14T12:29:56.470Z,20.83
2023-02-14T12:32:29.434Z,8.88
2023-02-14T12:43:15.415Z,7.50
2023-02-14T12:46:11.450Z,7.32
2023-02-14T12:49:00.546Z,8.65
2023-02-14T12:51:35.520Z,12.07
2023-02-14T12:54:24.082Z,24.15
2023-02-14T12:57:10.853Z,59.50
2023-02-14T12:59:57.295Z,160.32
2023-02-14T13:03:16.175Z,228.25
2023-02-14T13:06:01.913Z,210.07
2023-02-14T13:09:13.737Z,146.40
2023-02-14T13:11:57.200Z,100.28
2023-02-14T13:14:48.069Z,50.90
2023-02-14T13:17:30.722Z,39.45
2023-02-14T13:20:09.244Z,46.05
2023-02-14T13:22:41.283Z,135.57
2023-02-14T13:25:31.938Z,100.75
2023-02-14T13:28:05.115Z,112.35
2023-02-14T13:30:43.463Z,312.17
2023-02-14T13:33:33.870Z,156.10
2023-02-14T13:36:09.830Z,22.08
2023-02-14T13:38:46.947Z,15.77
2023-02-14T13:41:19.985Z,12.90
2023-02-14T13:43:58.974Z,14.52
2023-02-14T13:46:56.995Z,140.05
2023-02-14T13:50:23.382Z,43.67
2023-02-14T13:57:56.154Z,36.83
2023-02-14T14:09:29.910Z,15.18
2023-02-14T14:12:30.267Z,10.63
2023-02-14T14:15:20.314Z,9.30
2023-02-14T14:18:07.344Z,10.77
2023-02-14T14:20:48.977Z,9.27
2023-02-14T14:23:41.528Z,9.32
2023-02-14T14:30:20.978Z,6.13
2023-02-14T14:32:55.103Z,6.65
2023-02-14T14:35:31.949Z,6.68
2023-02-14T14:41:16.288Z,5.97
2023-02-14T14:44:30.189Z,4.75
2023-02-14T14:47:38.317Z,8.40
2023-02-14T14:50:22.718Z,7.20
2023-02-14T14:53:06.938Z,8.50
2023-02-14T14:55:41.163Z,5.78
2023-02-14T14:58:44.077Z,6.95
2023-02-14T15:01:35.176Z,10.05
2023-02-14T15:04:24.788Z,23.10
2023-02-14T15:06:59.827Z,16.73
2023-02-14T15:09:36.693Z,22.38
2023-02-14T15:12:26.839Z,14.70
2023-02-14T15:15:19.236Z,13.88
2023-02-14T15:17:52.967Z,32.17
2023-02-14T15:20:31.622Z,10.52
2023-02-14T15:23:06.065Z,26.83
2023-02-14T15:25:45.460Z,9.68
2023-02-14T15:28:30.361Z,6.57
2023-02-14T15:31:07.779Z,19.30
2023-02-14T15:33:42.514Z,15.02
2023-02-14T15:36:39.246Z,14.82
2023-02-14T15:39:15.302Z,6.07
2023-02-14T15:42:30.467Z,9.82
2023-02-14T15:45:54.056Z,15.18
2023-02-14T15:48:33.973Z,13.68
2023-02-14T15:51:10.957Z,6.03
2023-02-14T15:57:07.798Z,5.43
2023-02-14T15:59:44.619Z,7.93
2023-02-14T16:02:31.712Z,19.15
2023-02-14T16:05:10.589Z,13.82
2023-02-14T16:07:42.947Z,7.40
2023-02-14T16:10:27.588Z,8.32
2023-02-14T16:13:44.949Z,9.02
2023-02-14T16:16:18.154Z,5.85
2023-02-14T16:18:53.135Z,14.57
2023-02-14T16:21:33.907Z,22.65
2023-02-14T16:24:16.410Z,11.55
2023-02-14T16:26:51.068Z,8.75
2023-02-14T16:29:33.913Z,24.90
2023-02-14T16:32:16.518Z,24.90
2023-02-14T16:34:49.653Z,24.15
2023-02-14T16:37:25.810Z,17.52
2023-02-14T16:39:59.058Z,30.80
2023-02-14T16:42:30.544Z,13.02
2023-02-14T16:45:06.188Z,14.52
2023-02-14T16:47:50.868Z,22.85
2023-02-14T16:50:23.692Z,11.45
2023-02-14T16:53:05.456Z,10.30
2023-02-14T16:55:38.361Z,19.92
2023-02-14T16:58:11.659Z,23.52
2023-02-14T17:00:45.563Z,25.88
2023-02-14T17:03:19.440Z,21.25
2023-02-14T17:06:51.239Z,13.93
2023-02-14T17:09:28.344Z,17.80
2023-02-14T17:12:06.219Z,7.25
2023-02-14T17:14:41.849Z,15.80
2023-02-14T17:17:14.158Z,7.20
2023-02-14T17:19:45.610Z,28.63
2023-02-14T17:22:17.905Z,31.63
2023-02-14T17:24:49.271Z,31.45
2023-02-14T17:27:22.424Z,16.08
2023-02-14T17:29:54.208Z,26.70
2023-02-14T17:32:25.782Z,30.05
2023-02-14T17:34:58.015Z,12.88
2023-02-14T17:37:29.891Z,27.40
2023-02-14T17:40:01.452Z,6.13
2023-02-14T17:42:36.356Z,31.80
2023-02-14T17:45:08.855Z,20.15
2023-02-14T17:47:40.352Z,30.55
2023-02-14T17:50:12.720Z,27.40
2023-02-14T17:52:44.351Z,9.88
2023-02-14T17:55:16.882Z,25.58
2023-02-14T17:57:53.442Z,43.40
2023-02-14T18:00:26.069Z,31.88
2023-02-14T18:02:57.712Z,27.58
2023-02-14T18:05:29.120Z,27.80
2023-02-14T18:08:03.986Z,18.45
2023-02-14T18:10:35.407Z,18.40
2023-02-14T18:13:08.696Z,15.65
2023-02-14T18:15:40.117Z,16.63
2023-02-14T18:18:11.747Z,10.55
2023-02-14T18:20:43.428Z,12.35
2023-02-14T18:23:14.904Z,8.45
2023-02-14T18:25:55.509Z,19.67
2023-02-14T18:28:31.004Z,11.88
2023-02-14T18:31:07.723Z,16.15
2023-02-14T18:33:39.635Z,14.75
2023-02-14T18:36:13.906Z,29.13
2023-02-14T18:38:46.603Z,12.02
2023-02-14T18:41:19.207Z,9.07
2023-02-14T18:43:53.132Z,6.40
2023-02-14T18:46:26.103Z,8.10
2023-02-14T18:48:59.212Z,6.07
2023-02-14T18:51:32.172Z,6.57
2023-02-14T18:54:05.570Z,5.43
2023-02-14T18:56:38.999Z,5.50
2023-02-14T18:59:14.355Z,6.28
2023-02-14T19:01:48.225Z,5.32
2023-02-14T19:04:21.570Z,7.95
2023-02-14T19:06:52.978Z,5.97
2023-02-14T19:09:27.034Z,10.02
2023-02-14T19:12:01.112Z,5.30
2023-02-14T19:14:34.609Z,4.95
2023-02-14T19:17:06.328Z,4.80
2023-02-14T19:19:37.926Z,5.15
2023-02-14T19:22:09.579Z,5.80
2023-02-14T19:24:41.176Z,4.82
2023-02-14T19:27:12.673Z,4.80
2023-02-14T19:29:46.024Z,5.00
2023-02-14T19:32:17.522Z,4.93
2023-02-14T19:34:49.411Z,5.70
2023-02-14T19:37:21.269Z,5.15
2023-02-14T19:39:53.103Z,6.40
2023-02-14T19:42:24.667Z,4.78
2023-02-14T19:44:58.015Z,4.75
2023-02-14T19:47:45.927Z,4.68
2023-02-14T19:50:19.461Z,4.82
2023-02-14T19:52:51.692Z,4.78
2023-02-14T19:55:25.936Z,4.72
2023-02-14T19:57:58.629Z,4.80
2023-02-14T20:00:31.963Z,4.50
2023-02-14T20:03:05.046Z,4.85
2023-02-14T20:05:36.484Z,4.40
2023-02-14T20:08:08.343Z,5.10
2023-02-14T20:10:39.922Z,11.27
2023-02-14T20:13:11.700Z,5.07
2023-02-14T20:15:46.539Z,7.40
2023-02-14T20:18:18.320Z,4.35
2023-02-14T20:21:05.709Z,4.95
2023-02-14T20:23:37.575Z,4.80
2023-02-14T20:26:14.030Z,5.97
2023-02-14T20:28:46.165Z,5.18
2023-02-14T20:31:20.298Z,4.30
2023-02-14T20:33:54.342Z,5.93
2023-02-14T20:36:29.082Z,4.85
2023-02-14T20:39:00.381Z,5.80
2023-02-14T20:41:31.647Z,16.42
2023-02-14T20:44:06.039Z,4.53
2023-02-14T20:46:38.676Z,4.70
2023-02-14T20:49:11.893Z,5.05
2023-02-14T20:51:43.233Z,5.75
2023-02-14T20:54:13.768Z,4.60
2023-02-14T20:56:44.281Z,4.32
2023-02-14T20:59:14.888Z,4.85
2023-02-14T21:01:47.263Z,5.93
2023-02-14T21:04:17.759Z,6.70
2023-02-14T21:06:48.599Z,5.47
2023-02-14T21:09:21.545Z,5.07
2023-02-14T21:11:54.614Z,7.95
2023-02-14T21:14:25.102Z,5.60
2023-02-14T21:16:57.082Z,5.43
2023-02-14T21:19:29.414Z,5.60
2023-02-14T21:22:00.011Z,5.50
2023-02-14T21:24:30.540Z,6.68
2023-02-14T21:27:02.562Z,5.35
2023-02-14T21:29:33.091Z,4.78
2023-02-14T21:32:05.338Z,5.20
2023-02-14T21:34:36.220Z,5.00
2023-02-14T21:37:06.758Z,5.35
2023-02-14T21:39:38.783Z,5.55
2023-02-14T21:42:12.226Z,5.93
2023-02-14T21:44:59.282Z,5.35
2023-02-14T21:47:31.321Z,7.20
2023-02-14T21:50:18.556Z,6.00
2023-02-14T21:52:49.131Z,5.85
2023-02-14T21:55:19.833Z,6.10
2023-02-14T21:57:50.389Z,5.38
2023-02-14T22:00:21.438Z,6.28
2023-02-14T22:02:53.622Z,5.68
2023-02-14T22:05:24.105Z,6.88
2023-02-14T22:07:54.658Z,6.57
2023-02-14T22:10:25.196Z,5.72
2023-02-14T22:12:55.699Z,5.30
2023-02-14T22:15:26.091Z,8.77
2023-02-14T22:17:58.134Z,16.55
2023-02-14T22:20:28.657Z,55.10
2023-02-14T22:22:59.197Z,36.97
2023-02-14T22:25:29.760Z,5.13
2023-02-14T22:28:00.225Z,5.30
2023-02-14T22:30:30.672Z,5.25
2023-02-14T22:33:02.704Z,7.45
2023-02-14T22:35:33.129Z,13.13
2023-02-14T22:38:03.577Z,6.65
2023-02-14T22:40:34.056Z,7.63
2023-02-14T22:43:04.576Z,13.23
2023-02-14T22:45:35.266Z,17.83
2023-02-14T22:48:07.771Z,11.02
2023-02-14T22:50:38.206Z,8.73
2023-02-14T22:53:08.776Z,21.30
2023-02-14T22:55:39.291Z,12.20
2023-02-14T22:58:09.988Z,11.68
2023-02-14T23:00:40.771Z,22.42
2023-02-14T23:03:14.518Z,25.98
2023-02-14T23:05:44.984Z,18.88
2023-02-14T23:08:15.377Z,11.40
2023-02-14T23:10:45.880Z,19.67
2023-02-14T23:13:33.191Z,33.17
2023-02-14T23:16:26.560Z,56.28
2023-02-14T23:19:15.145Z,31.25
2023-02-14T23:21:57.472Z,7.43
2023-02-14T23:24:28.037Z,6.55
2023-02-14T23:26:58.614Z,23.83
2023-02-14T23:29:29.035Z,10.63
2023-02-14T23:31:59.777Z,4.40
2023-02-14T23:34:34.197Z,12.45
2023-02-14T23:37:05.089Z,7.55
2023-02-14T23:39:39.361Z,5.65
2023-02-14T23:42:13.030Z,4.85
2023-02-14T23:44:44.889Z,10.20
2023-02-14T23:47:16.719Z,3.50
2023-02-14T23:49:48.898Z,4.78
2023-02-14T23:52:19.403Z,5.18
2023-02-14T23:54:49.855Z,3.65
2023-02-14T23:57:20.519Z,3.38
2023-02-14T23:59:51.053Z,5.68
